PWSweather.com
Personal Weather Stations
Station Observations
PRATO
PratoIT 59100

PratoIT 59100

Lat: 43.8956799, Lon: 11.0845155

Elevation: 164

Station Type: Davis Vantage Vue

http://www.meteoprato.it

High Low Average
Temperature 63.3°F17.4°F 53.2°F11.8°F 58.3°F14.6°F
Dew Point 44.3°F6.8°F 38.6°F3.7°F 41.0°F5.0°F
Winds 16.5 mph -26.6 mph - 1.3 mph 2.1 mph 10.2 mph 16.4 mph
Wind Gusts 34.0 mph54.7 mph 7.0 mph11.3 mph 20.7 mph33.3 mph
Humidity 60% 42% 53%
Pressure 30.15 in1021.00 in 30.04 in1017.30 in -
Precipitation 0.00 in0.00 in - -
Hour Temp Dew Point Humidity Winds Wind Gusts Pressure Precip Precip Rate Daily Precip Total
12:00 AM 54.7°F12.6°C 40.2°F4.6°C 58% 8.7 mph NE14.0 kmh NE 17.0 mph27.4 kmh 30.11 in1019.6 mb 0.00 in0.0 mm 0.00 in0.0 mm 0.00 in0.0 mm
12:05 AM 54.7°F12.6°C 40.2°F4.6°C 58% 9.2 mph NE14.8 kmh NE 18.0 mph29.0 kmh 30.11 in1019.6 mb 0.00 in0.0 mm 0.00 in0.0 mm 0.00 in0.0 mm
12:10 AM 54.6°F12.6°C 40.1°F4.5°C 58% 10.1 mph NE16.3 kmh NE 18.0 mph29.0 kmh 30.11 in1019.6 mb 0.00 in0.0 mm 0.00 in0.0 mm 0.00 in0.0 mm
12:15 AM 54.6°F12.6°C 40.1°F4.5°C 58% 10.7 mph NE17.2 kmh NE 18.0 mph29.0 kmh 30.11 in1019.6 mb 0.00 in0.0 mm 0.00 in0.0 mm 0.00 in0.0 mm
12:20 AM 54.5°F12.5°C 40.0°F4.4°C 58% 10.5 mph NE16.9 kmh NE 18.0 mph29.0 kmh 30.10 in1019.3 mb 0.00 in0.0 mm 0.00 in0.0 mm 0.00 in0.0 mm
12:25 AM 54.4°F12.4°C 39.9°F4.4°C 58% 10.1 mph NE16.3 kmh NE 17.0 mph27.4 kmh 30.11 in1019.6 mb 0.00 in0.0 mm 0.00 in0.0 mm 0.00 in0.0 mm
12:30 AM 54.3°F12.4°C 39.8°F4.3°C 58% 10.0 mph NE16.1 kmh NE 17.0 mph27.4 kmh 30.11 in1019.6 mb 0.00 in0.0 mm 0.00 in0.0 mm 0.00 in0.0 mm
12:35 AM 54.3°F12.4°C 39.8°F4.3°C 58% 10.3 mph NE16.6 kmh NE 23.0 mph37.0 kmh 30.11 in1019.6 mb 0.00 in0.0 mm 0.00 in0.0 mm 0.00 in0.0 mm
12:40 AM 54.3°F12.4°C 39.8°F4.3°C 58% 11.5 mph NE18.5 kmh NE 27.0 mph43.5 kmh 30.10 in1019.3 mb 0.00 in0.0 mm 0.00 in0.0 mm 0.00 in0.0 mm
12:45 AM 54.2°F12.3°C 39.7°F4.3°C 58% 12.9 mph NE20.8 kmh NE 27.0 mph43.5 kmh 30.11 in1019.6 mb 0.00 in0.0 mm 0.00 in0.0 mm 0.00 in0.0 mm
12:50 AM 54.2°F12.3°C 39.7°F4.3°C 58% 13.2 mph NE21.2 kmh NE 20.0 mph32.2 kmh 30.11 in1019.6 mb 0.00 in0.0 mm 0.00 in0.0 mm 0.00 in0.0 mm
12:55 AM 54.2°F12.3°C 39.7°F4.3°C 58% 12.5 mph NE20.1 kmh NE 20.0 mph32.2 kmh 30.11 in1019.6 mb 0.00 in0.0 mm 0.00 in0.0 mm 0.00 in0.0 mm
01:00 AM 54.1°F12.3°C 39.6°F4.2°C 58% 11.7 mph NE18.8 kmh NE 18.0 mph29.0 kmh 30.11 in1019.6 mb 0.00 in0.0 mm 0.00 in0.0 mm 0.00 in0.0 mm
01:05 AM 54.1°F12.3°C 39.6°F4.2°C 58% 10.7 mph NE17.2 kmh NE 19.0 mph30.6 kmh 30.11 in1019.6 mb 0.00 in0.0 mm 0.00 in0.0 mm 0.00 in0.0 mm
01:10 AM 54.1°F12.3°C 39.6°F4.2°C 58% 10.3 mph NE16.6 kmh NE 19.0 mph30.6 kmh 30.11 in1019.6 mb 0.00 in0.0 mm 0.00 in0.0 mm 0.00 in0.0 mm
01:15 AM 54.1°F12.3°C 39.6°F4.2°C 58% 10.8 mph NE17.4 kmh NE 21.0 mph33.8 kmh 30.11 in1019.6 mb 0.00 in0.0 mm 0.00 in0.0 mm 0.00 in0.0 mm
01:20 AM 54.0°F12.2°C 39.5°F4.2°C 58% 11.3 mph NE18.2 kmh NE 21.0 mph33.8 kmh 30.10 in1019.3 mb 0.00 in0.0 mm 0.00 in0.0 mm 0.00 in0.0 mm
01:25 AM 54.1°F12.3°C 39.6°F4.2°C 58% 11.3 mph NE18.2 kmh NE 23.0 mph37.0 kmh 30.11 in1019.6 mb 0.00 in0.0 mm 0.00 in0.0 mm 0.00 in0.0 mm
01:30 AM 54.0°F12.2°C 39.5°F4.2°C 58% 11.1 mph NE17.9 kmh NE 23.0 mph37.0 kmh 30.11 in1019.6 mb 0.00 in0.0 mm 0.00 in0.0 mm 0.00 in0.0 mm
01:35 AM 54.0°F12.2°C 39.5°F4.2°C 58% 11.0 mph NE17.7 kmh NE 19.0 mph30.6 kmh 30.10 in1019.3 mb 0.00 in0.0 mm 0.00 in0.0 mm 0.00 in0.0 mm
01:40 AM 53.9°F12.2°C 39.5°F4.2°C 58% 11.0 mph NE17.7 kmh NE 19.0 mph30.6 kmh 30.10 in1019.3 mb 0.00 in0.0 mm 0.00 in0.0 mm 0.00 in0.0 mm
01:45 AM 54.0°F12.2°C 39.5°F4.2°C 58% 11.2 mph NE18.0 kmh NE 21.0 mph33.8 kmh 30.10 in1019.3 mb 0.00 in0.0 mm 0.00 in0.0 mm 0.00 in0.0 mm
01:50 AM 53.9°F12.2°C 39.5°F4.2°C 58% 11.7 mph NE18.8 kmh NE 21.0 mph33.8 kmh 30.10 in1019.3 mb 0.00 in0.0 mm 0.00 in0.0 mm 0.00 in0.0 mm
01:55 AM 53.9°F12.2°C 39.9°F4.4°C 59% 11.9 mph NE19.2 kmh NE 19.0 mph30.6 kmh 30.10 in1019.3 mb 0.00 in0.0 mm 0.00 in0.0 mm 0.00 in0.0 mm
02:00 AM 53.9°F12.2°C 39.9°F4.4°C 59% 11.5 mph NE18.5 kmh NE 21.0 mph33.8 kmh 30.09 in1019.0 mb 0.00 in0.0 mm 0.00 in0.0 mm 0.00 in0.0 mm
02:05 AM 53.9°F12.2°C 39.9°F4.4°C 59% 11.6 mph NE18.7 kmh NE 21.0 mph33.8 kmh 30.09 in1019.0 mb 0.00 in0.0 mm 0.00 in0.0 mm 0.00 in0.0 mm
02:10 AM 53.9°F12.2°C 39.9°F4.4°C 59% 12.2 mph NE19.6 kmh NE 21.0 mph33.8 kmh 30.09 in1019.0 mb 0.00 in0.0 mm 0.00 in0.0 mm 0.00 in0.0 mm
02:15 AM 53.9°F12.2°C 39.9°F4.4°C 59% 12.7 mph NE20.4 kmh NE 21.0 mph33.8 kmh 30.09 in1019.0 mb 0.00 in0.0 mm 0.00 in0.0 mm 0.00 in0.0 mm
02:20 AM 53.9°F12.2°C 39.9°F4.4°C 59% 13.4 mph NE21.6 kmh NE 28.0 mph45.1 kmh 30.09 in1019.0 mb 0.00 in0.0 mm 0.00 in0.0 mm 0.00 in0.0 mm
02:25 AM 53.8°F12.1°C 39.8°F4.3°C 59% 13.7 mph NE22.0 kmh NE 28.0 mph45.1 kmh 30.09 in1019.0 mb 0.00 in0.0 mm 0.00 in0.0 mm 0.00 in0.0 mm
02:30 AM 53.8°F12.1°C 39.8°F4.3°C 59% 13.5 mph NE21.7 kmh NE 24.0 mph38.6 kmh 30.09 in1019.0 mb 0.00 in0.0 mm 0.00 in0.0 mm 0.00 in0.0 mm
02:35 AM 53.8°F12.1°C 39.8°F4.3°C 59% 13.5 mph NE21.7 kmh NE 24.0 mph38.6 kmh 30.09 in1019.0 mb 0.00 in0.0 mm 0.00 in0.0 mm 0.00 in0.0 mm
02:40 AM 53.7°F12.1°C 39.7°F4.3°C 59% 13.5 mph NE21.7 kmh NE 22.0 mph35.4 kmh 30.09 in1019.0 mb 0.00 in0.0 mm 0.00 in0.0 mm 0.00 in0.0 mm
02:45 AM 53.7°F12.1°C 39.7°F4.3°C 59% 12.2 mph NE19.6 kmh NE 20.0 mph32.2 kmh 30.09 in1019.0 mb 0.00 in0.0 mm 0.00 in0.0 mm 0.00 in0.0 mm
02:50 AM 53.7°F12.1°C 39.7°F4.3°C 59% 10.6 mph NE17.1 kmh NE 19.0 mph30.6 kmh 30.09 in1019.0 mb 0.00 in0.0 mm 0.00 in0.0 mm 0.00 in0.0 mm
02:55 AM 53.7°F12.1°C 39.7°F4.3°C 59% 9.6 mph NE15.4 kmh NE 19.0 mph30.6 kmh 30.08 in1018.6 mb 0.00 in0.0 mm 0.00 in0.0 mm 0.00 in0.0 mm
03:00 AM 53.6°F12.0°C 39.6°F4.2°C 59% 8.9 mph NE14.3 kmh NE 19.0 mph30.6 kmh 30.08 in1018.6 mb 0.00 in0.0 mm 0.00 in0.0 mm 0.00 in0.0 mm
03:05 AM 53.4°F11.9°C 39.4°F4.1°C 59% 8.3 mph NE13.4 kmh NE 14.0 mph22.5 kmh 30.08 in1018.6 mb 0.00 in0.0 mm 0.00 in0.0 mm 0.00 in0.0 mm
03:10 AM 53.4°F11.9°C 39.9°F4.4°C 60% 7.7 mph NE12.4 kmh NE 15.0 mph24.1 kmh 30.08 in1018.6 mb 0.00 in0.0 mm 0.00 in0.0 mm 0.00 in0.0 mm
03:15 AM 53.4°F11.9°C 39.4°F4.1°C 59% 7.7 mph NE12.4 kmh NE 17.0 mph27.4 kmh 30.07 in1018.3 mb 0.00 in0.0 mm 0.00 in0.0 mm 0.00 in0.0 mm
03:20 AM 53.5°F11.9°C 39.5°F4.2°C 59% 8.4 mph NE13.5 kmh NE 18.0 mph29.0 kmh 30.07 in1018.3 mb 0.00 in0.0 mm 0.00 in0.0 mm 0.00 in0.0 mm
03:25 AM 53.4°F11.9°C 39.4°F4.1°C 59% 8.6 mph NE13.8 kmh NE 18.0 mph29.0 kmh 30.07 in1018.3 mb 0.00 in0.0 mm 0.00 in0.0 mm 0.00 in0.0 mm
03:30 AM 53.4°F11.9°C 39.4°F4.1°C 59% 8.0 mph NE12.9 kmh NE 16.0 mph25.7 kmh 30.07 in1018.3 mb 0.00 in0.0 mm 0.00 in0.0 mm 0.00 in0.0 mm
03:35 AM 53.3°F11.8°C 39.8°F4.3°C 60% 7.5 mph NE12.1 kmh NE 16.0 mph25.7 kmh 30.07 in1018.3 mb 0.00 in0.0 mm 0.00 in0.0 mm 0.00 in0.0 mm
03:40 AM 53.4°F11.9°C 39.4°F4.1°C 59% 7.5 mph NE12.1 kmh NE 16.0 mph25.7 kmh 30.07 in1018.3 mb 0.00 in0.0 mm 0.00 in0.0 mm 0.00 in0.0 mm
03:45 AM 53.4°F11.9°C 39.4°F4.1°C 59% 7.3 mph NE11.7 kmh NE 16.0 mph25.7 kmh 30.08 in1018.6 mb 0.00 in0.0 mm 0.00 in0.0 mm 0.00 in0.0 mm
03:50 AM 53.5°F11.9°C 39.5°F4.2°C 59% 7.8 mph NE12.6 kmh NE 25.0 mph40.2 kmh 30.07 in1018.3 mb 0.00 in0.0 mm 0.00 in0.0 mm 0.00 in0.0 mm
03:55 AM 53.5°F11.9°C 39.5°F4.2°C 59% 8.9 mph NE14.3 kmh NE 25.0 mph40.2 kmh 30.07 in1018.3 mb 0.00 in0.0 mm 0.00 in0.0 mm 0.00 in0.0 mm
04:00 AM 53.5°F11.9°C 39.5°F4.2°C 59% 9.3 mph NE15.0 kmh NE 19.0 mph30.6 kmh 30.07 in1018.3 mb 0.00 in0.0 mm 0.00 in0.0 mm 0.00 in0.0 mm
04:05 AM 53.5°F11.9°C 39.1°F3.9°C 58% 9.2 mph NE14.8 kmh NE 18.0 mph29.0 kmh 30.07 in1018.3 mb 0.00 in0.0 mm 0.00 in0.0 mm 0.00 in0.0 mm
04:10 AM 53.4°F11.9°C 39.4°F4.1°C 59% 9.8 mph NE15.8 kmh NE 18.0 mph29.0 kmh 30.07 in1018.3 mb 0.00 in0.0 mm 0.00 in0.0 mm 0.00 in0.0 mm
04:15 AM 53.4°F11.9°C 39.4°F4.1°C 59% 10.2 mph NE16.4 kmh NE 19.0 mph30.6 kmh 30.07 in1018.3 mb 0.00 in0.0 mm 0.00 in0.0 mm 0.00 in0.0 mm
04:20 AM 53.3°F11.8°C 39.3°F4.1°C 59% 9.4 mph NE15.1 kmh NE 19.0 mph30.6 kmh 30.07 in1018.3 mb 0.00 in0.0 mm 0.00 in0.0 mm 0.00 in0.0 mm
04:25 AM 53.3°F11.8°C 39.3°F4.1°C 59% 8.6 mph NE13.8 kmh NE 18.0 mph29.0 kmh 30.07 in1018.3 mb 0.00 in0.0 mm 0.00 in0.0 mm 0.00 in0.0 mm
04:30 AM 53.3°F11.8°C 39.3°F4.1°C 59% 9.0 mph NE14.5 kmh NE 20.0 mph32.2 kmh 30.06 in1017.9 mb 0.00 in0.0 mm 0.00 in0.0 mm 0.00 in0.0 mm
04:35 AM 53.3°F11.8°C 39.3°F4.1°C 59% 10.8 mph NE17.4 kmh NE 24.0 mph38.6 kmh 30.06 in1017.9 mb 0.00 in0.0 mm 0.00 in0.0 mm 0.00 in0.0 mm
04:40 AM 53.4°F11.9°C 39.4°F4.1°C 59% 12.5 mph NE20.1 kmh NE 24.0 mph38.6 kmh 30.05 in1017.6 mb 0.00 in0.0 mm 0.00 in0.0 mm 0.00 in0.0 mm
04:45 AM 53.4°F11.9°C 39.4°F4.1°C 59% 12.8 mph NE20.6 kmh NE 21.0 mph33.8 kmh 30.06 in1017.9 mb 0.00 in0.0 mm 0.00 in0.0 mm 0.00 in0.0 mm
04:50 AM 53.4°F11.9°C 39.4°F4.1°C 59% 12.1 mph NE19.5 kmh NE 19.0 mph30.6 kmh 30.08 in1018.6 mb 0.00 in0.0 mm 0.00 in0.0 mm 0.00 in0.0 mm
04:55 AM 53.4°F11.9°C 39.9°F4.4°C 60% 9.9 mph NE15.9 kmh NE 20.0 mph32.2 kmh 30.09 in1019.0 mb 0.00 in0.0 mm 0.00 in0.0 mm 0.00 in0.0 mm
05:00 AM 53.5°F11.9°C 39.9°F4.4°C 60% 7.8 mph NE12.6 kmh NE 20.0 mph32.2 kmh 30.09 in1019.0 mb 0.00 in0.0 mm 0.00 in0.0 mm 0.00 in0.0 mm
05:05 AM 53.4°F11.9°C 39.9°F4.4°C 60% 8.0 mph NE12.9 kmh NE 17.0 mph27.4 kmh 30.08 in1018.6 mb 0.00 in0.0 mm 0.00 in0.0 mm 0.00 in0.0 mm
05:10 AM 53.4°F11.9°C 39.9°F4.4°C 60% 8.1 mph NE13.0 kmh NE 18.0 mph29.0 kmh 30.07 in1018.3 mb 0.00 in0.0 mm 0.00 in0.0 mm 0.00 in0.0 mm
05:15 AM 53.3°F11.8°C 39.8°F4.3°C 60% 8.3 mph NE13.4 kmh NE 24.0 mph38.6 kmh 30.07 in1018.3 mb 0.00 in0.0 mm 0.00 in0.0 mm 0.00 in0.0 mm
05:20 AM 53.2°F11.8°C 39.2°F4.0°C 59% 10.6 mph NE17.1 kmh NE 24.0 mph38.6 kmh 30.07 in1018.3 mb 0.00 in0.0 mm 0.00 in0.0 mm 0.00 in0.0 mm
05:25 AM 53.3°F11.8°C 39.3°F4.1°C 59% 13.2 mph NE21.2 kmh NE 29.0 mph46.7 kmh 30.06 in1017.9 mb 0.00 in0.0 mm 0.00 in0.0 mm 0.00 in0.0 mm
05:30 AM 53.3°F11.8°C 39.3°F4.1°C 59% 14.5 mph NE23.3 kmh NE 29.0 mph46.7 kmh 30.05 in1017.6 mb 0.00 in0.0 mm 0.00 in0.0 mm 0.00 in0.0 mm
05:35 AM 53.2°F11.8°C 39.7°F4.3°C 60% 15.4 mph NE24.8 kmh NE 26.0 mph41.8 kmh 30.06 in1017.9 mb 0.00 in0.0 mm 0.00 in0.0 mm 0.00 in0.0 mm
05:40 AM 53.2°F11.8°C 39.7°F4.3°C 60% 16.3 mph NE26.2 kmh NE 26.0 mph41.8 kmh 30.06 in1017.9 mb 0.00 in0.0 mm 0.00 in0.0 mm 0.00 in0.0 mm
05:45 AM 53.2°F11.8°C 39.7°F4.3°C 60% 16.5 mph NE26.6 kmh NE 25.0 mph40.2 kmh 30.05 in1017.6 mb 0.00 in0.0 mm 0.00 in0.0 mm 0.00 in0.0 mm
05:50 AM 53.3°F11.8°C 39.8°F4.3°C 60% 15.2 mph NE24.5 kmh NE 25.0 mph40.2 kmh 30.05 in1017.6 mb 0.00 in0.0 mm 0.00 in0.0 mm 0.00 in0.0 mm
05:55 AM 53.4°F11.9°C 39.4°F4.1°C 59% 14.2 mph NE22.9 kmh NE 28.0 mph45.1 kmh 30.06 in1017.9 mb 0.00 in0.0 mm 0.00 in0.0 mm 0.00 in0.0 mm
06:00 AM 53.4°F11.9°C 39.4°F4.1°C 59% 13.7 mph NE22.0 kmh NE 28.0 mph45.1 kmh 30.06 in1017.9 mb 0.00 in0.0 mm 0.00 in0.0 mm 0.00 in0.0 mm
06:05 AM 53.5°F11.9°C 39.1°F3.9°C 58% 13.3 mph NE21.4 kmh NE 25.0 mph40.2 kmh 30.06 in1017.9 mb 0.00 in0.0 mm 0.00 in0.0 mm 0.00 in0.0 mm
06:10 AM 53.6°F12.0°C 39.6°F4.2°C 59% 13.6 mph NE21.9 kmh NE 26.0 mph41.8 kmh 30.05 in1017.6 mb 0.00 in0.0 mm 0.00 in0.0 mm 0.00 in0.0 mm
06:15 AM 53.6°F12.0°C 39.2°F4.0°C 58% 14.1 mph NE22.7 kmh NE 26.0 mph41.8 kmh 30.05 in1017.6 mb 0.00 in0.0 mm 0.00 in0.0 mm 0.00 in0.0 mm
06:20 AM 53.7°F12.1°C 39.3°F4.1°C 58% 13.4 mph NE21.6 kmh NE 28.0 mph45.1 kmh 30.04 in1017.3 mb 0.00 in0.0 mm 0.00 in0.0 mm 0.00 in0.0 mm
06:25 AM 53.7°F12.1°C 38.8°F3.8°C 57% 13.2 mph NE21.2 kmh NE 29.0 mph46.7 kmh 30.04 in1017.3 mb 0.00 in0.0 mm 0.00 in0.0 mm 0.00 in0.0 mm
06:30 AM 53.8°F12.1°C 38.9°F3.8°C 57% 14.5 mph NE23.3 kmh NE 29.0 mph46.7 kmh 30.04 in1017.3 mb 0.00 in0.0 mm 0.00 in0.0 mm 0.00 in0.0 mm
06:35 AM 53.9°F12.2°C 38.6°F3.7°C 56% 15.5 mph NE24.9 kmh NE 34.0 mph54.7 kmh 30.04 in1017.3 mb 0.00 in0.0 mm 0.00 in0.0 mm 0.00 in0.0 mm
06:40 AM 54.0°F12.2°C 38.6°F3.7°C 56% 15.4 mph NE24.8 kmh NE 34.0 mph54.7 kmh 30.05 in1017.6 mb 0.00 in0.0 mm 0.00 in0.0 mm 0.00 in0.0 mm
06:45 AM 53.9°F12.2°C 38.6°F3.7°C 56% 15.4 mph NE24.8 kmh NE 28.0 mph45.1 kmh 30.05 in1017.6 mb 0.00 in0.0 mm 0.00 in0.0 mm 0.00 in0.0 mm
06:50 AM 54.0°F12.2°C 38.6°F3.7°C 56% 15.3 mph NE24.6 kmh NE 25.0 mph40.2 kmh 30.06 in1017.9 mb 0.00 in0.0 mm 0.00 in0.0 mm 0.00 in0.0 mm
06:55 AM 54.1°F12.3°C 38.7°F3.7°C 56% 14.5 mph NE23.3 kmh NE 25.0 mph40.2 kmh 30.07 in1018.3 mb 0.00 in0.0 mm 0.00 in0.0 mm 0.00 in0.0 mm
07:00 AM 54.0°F12.2°C 38.6°F3.7°C 56% 13.7 mph NE22.0 kmh NE 27.0 mph43.5 kmh 30.08 in1018.6 mb 0.00 in0.0 mm 0.00 in0.0 mm 0.00 in0.0 mm
07:05 AM 54.0°F12.2°C 39.1°F3.9°C 57% 12.7 mph NE20.4 kmh NE 27.0 mph43.5 kmh 30.09 in1019.0 mb 0.00 in0.0 mm 0.00 in0.0 mm 0.00 in0.0 mm
07:10 AM 54.1°F12.3°C 39.2°F4.0°C 57% 11.0 mph NE17.7 kmh NE 20.0 mph32.2 kmh 30.09 in1019.0 mb 0.00 in0.0 mm 0.00 in0.0 mm 0.00 in0.0 mm
07:15 AM 54.2°F12.3°C 39.3°F4.1°C 57% 10.2 mph NE16.4 kmh NE 21.0 mph33.8 kmh 30.09 in1019.0 mb 0.00 in0.0 mm 0.00 in0.0 mm 0.00 in0.0 mm
07:20 AM 54.4°F12.4°C 39.5°F4.2°C 57% 10.7 mph NE17.2 kmh NE 21.0 mph33.8 kmh 30.09 in1019.0 mb 0.00 in0.0 mm 0.00 in0.0 mm 0.00 in0.0 mm
07:25 AM 54.5°F12.5°C 40.0°F4.4°C 58% 10.1 mph NE16.3 kmh NE 23.0 mph37.0 kmh 30.09 in1019.0 mb 0.00 in0.0 mm 0.00 in0.0 mm 0.00 in0.0 mm
07:30 AM 54.6°F12.6°C 40.1°F4.5°C 58% 9.1 mph NE14.6 kmh NE 23.0 mph37.0 kmh 30.09 in1019.0 mb 0.00 in0.0 mm 0.00 in0.0 mm 0.00 in0.0 mm
07:35 AM 54.9°F12.7°C 39.9°F4.4°C 57% 9.9 mph NE15.9 kmh NE 25.0 mph40.2 kmh 30.10 in1019.3 mb 0.00 in0.0 mm 0.00 in0.0 mm 0.00 in0.0 mm
07:40 AM 55.1°F12.8°C 40.1°F4.5°C 57% 11.3 mph NE18.2 kmh NE 25.0 mph40.2 kmh 30.11 in1019.6 mb 0.00 in0.0 mm 0.00 in0.0 mm 0.00 in0.0 mm
07:45 AM 55.3°F12.9°C 40.3°F4.6°C 57% 11.9 mph NE19.2 kmh NE 22.0 mph35.4 kmh 30.11 in1019.6 mb 0.00 in0.0 mm 0.00 in0.0 mm 0.00 in0.0 mm
07:50 AM 55.5°F13.1°C 40.5°F4.7°C 57% 11.0 mph NE17.7 kmh NE 22.0 mph35.4 kmh 30.11 in1019.6 mb 0.00 in0.0 mm 0.00 in0.0 mm 0.00 in0.0 mm
07:55 AM 55.7°F13.2°C 40.2°F4.6°C 56% 10.4 mph NE16.7 kmh NE 24.0 mph38.6 kmh 30.11 in1019.6 mb 0.00 in0.0 mm 0.00 in0.0 mm 0.00 in0.0 mm
08:00 AM 55.8°F13.2°C 40.3°F4.6°C 56% 10.6 mph NE17.1 kmh NE 25.0 mph40.2 kmh 30.11 in1019.6 mb 0.00 in0.0 mm 0.00 in0.0 mm 0.00 in0.0 mm
08:05 AM 55.9°F13.3°C 40.4°F4.7°C 56% 10.6 mph NE17.1 kmh NE 25.0 mph40.2 kmh 30.10 in1019.3 mb 0.00 in0.0 mm 0.00 in0.0 mm 0.00 in0.0 mm
08:10 AM 55.7°F13.2°C 40.2°F4.6°C 56% 11.0 mph NE17.7 kmh NE 25.0 mph40.2 kmh 30.11 in1019.6 mb 0.00 in0.0 mm 0.00 in0.0 mm 0.00 in0.0 mm
08:15 AM 55.7°F13.2°C 40.7°F4.8°C 57% 11.6 mph NE18.7 kmh NE 25.0 mph40.2 kmh 30.11 in1019.6 mb 0.00 in0.0 mm 0.00 in0.0 mm 0.00 in0.0 mm
08:20 AM 55.6°F13.1°C 40.1°F4.5°C 56% 11.7 mph NE18.8 kmh NE 19.0 mph30.6 kmh 30.11 in1019.6 mb 0.00 in0.0 mm 0.00 in0.0 mm 0.00 in0.0 mm
08:25 AM 55.6°F13.1°C 40.1°F4.5°C 56% 11.4 mph NE18.3 kmh NE 24.0 mph38.6 kmh 30.11 in1019.6 mb 0.00 in0.0 mm 0.00 in0.0 mm 0.00 in0.0 mm
08:30 AM 55.5°F13.1°C 40.5°F4.7°C 57% 11.9 mph NE19.2 kmh NE 24.0 mph38.6 kmh 30.11 in1019.6 mb 0.00 in0.0 mm 0.00 in0.0 mm 0.00 in0.0 mm
08:35 AM 55.5°F13.1°C 40.5°F4.7°C 57% 12.5 mph NE20.1 kmh NE 27.0 mph43.5 kmh 30.11 in1019.6 mb 0.00 in0.0 mm 0.00 in0.0 mm 0.00 in0.0 mm
08:40 AM 55.5°F13.1°C 40.5°F4.7°C 57% 12.3 mph NE19.8 kmh NE 27.0 mph43.5 kmh 30.11 in1019.6 mb 0.00 in0.0 mm 0.00 in0.0 mm 0.00 in0.0 mm
08:45 AM 55.6°F13.1°C 40.6°F4.8°C 57% 12.1 mph NE19.5 kmh NE 26.0 mph41.8 kmh 30.11 in1019.6 mb 0.00 in0.0 mm 0.00 in0.0 mm 0.00 in0.0 mm
08:50 AM 55.6°F13.1°C 40.6°F4.8°C 57% 11.9 mph NE19.2 kmh NE 22.0 mph35.4 kmh 30.11 in1019.6 mb 0.00 in0.0 mm 0.00 in0.0 mm 0.00 in0.0 mm
08:55 AM 55.6°F13.1°C 40.6°F4.8°C 57% 11.7 mph NE18.8 kmh NE 22.0 mph35.4 kmh 30.11 in1019.6 mb 0.00 in0.0 mm 0.00 in0.0 mm 0.00 in0.0 mm
09:00 AM 55.7°F13.2°C 40.7°F4.8°C 57% 10.4 mph NE16.7 kmh NE 20.0 mph32.2 kmh 30.11 in1019.6 mb 0.00 in0.0 mm 0.00 in0.0 mm 0.00 in0.0 mm
09:05 AM 55.9°F13.3°C 40.4°F4.7°C 56% 8.0 mph NE12.9 kmh NE 21.0 mph33.8 kmh 30.11 in1019.6 mb 0.00 in0.0 mm 0.00 in0.0 mm 0.00 in0.0 mm
09:10 AM 56.2°F13.4°C 40.7°F4.8°C 56% 7.8 mph NE12.6 kmh NE 21.0 mph33.8 kmh 30.11 in1019.6 mb 0.00 in0.0 mm 0.00 in0.0 mm 0.00 in0.0 mm
09:15 AM 56.6°F13.7°C 40.6°F4.8°C 55% 10.4 mph NE16.7 kmh NE 21.0 mph33.8 kmh 30.11 in1019.6 mb 0.00 in0.0 mm 0.00 in0.0 mm 0.00 in0.0 mm
09:20 AM 57.0°F13.9°C 40.5°F4.7°C 54% 12.6 mph NE20.3 kmh NE 25.0 mph40.2 kmh 30.11 in1019.6 mb 0.00 in0.0 mm 0.00 in0.0 mm 0.00 in0.0 mm
09:25 AM 57.2°F14.0°C 40.7°F4.8°C 54% 13.5 mph NE21.7 kmh NE 25.0 mph40.2 kmh 30.11 in1019.6 mb 0.00 in0.0 mm 0.00 in0.0 mm 0.00 in0.0 mm
09:30 AM 57.4°F14.1°C 40.4°F4.7°C 53% 12.7 mph NE20.4 kmh NE 19.0 mph30.6 kmh 30.11 in1019.6 mb 0.00 in0.0 mm 0.00 in0.0 mm 0.00 in0.0 mm
09:35 AM 57.4°F14.1°C 39.9°F4.4°C 52% 11.6 mph NE18.7 kmh NE 27.0 mph43.5 kmh 30.11 in1019.6 mb 0.00 in0.0 mm 0.00 in0.0 mm 0.00 in0.0 mm
09:40 AM 57.3°F14.1°C 40.3°F4.6°C 53% 12.1 mph NE19.5 kmh NE 27.0 mph43.5 kmh 30.11 in1019.6 mb 0.00 in0.0 mm 0.00 in0.0 mm 0.00 in0.0 mm
09:45 AM 57.6°F14.2°C 40.6°F4.8°C 53% 12.5 mph NE20.1 kmh NE 21.0 mph33.8 kmh 30.11 in1019.6 mb 0.00 in0.0 mm 0.00 in0.0 mm 0.00 in0.0 mm
09:50 AM 57.7°F14.3°C 40.2°F4.6°C 52% 11.1 mph NE17.9 kmh NE 21.0 mph33.8 kmh 30.11 in1019.6 mb 0.00 in0.0 mm 0.00 in0.0 mm 0.00 in0.0 mm
09:55 AM 57.7°F14.3°C 40.2°F4.6°C 52% 10.0 mph NE16.1 kmh NE 24.0 mph38.6 kmh 30.10 in1019.3 mb 0.00 in0.0 mm 0.00 in0.0 mm 0.00 in0.0 mm
10:00 AM 57.7°F14.3°C 40.2°F4.6°C 52% 10.5 mph NE16.9 kmh NE 24.0 mph38.6 kmh 30.10 in1019.3 mb 0.00 in0.0 mm 0.00 in0.0 mm 0.00 in0.0 mm
10:05 AM 57.7°F14.3°C 40.2°F4.6°C 52% 11.0 mph NE17.7 kmh NE 24.0 mph38.6 kmh 30.10 in1019.3 mb 0.00 in0.0 mm 0.00 in0.0 mm 0.00 in0.0 mm
10:10 AM 58.1°F14.5°C 40.1°F4.5°C 51% 9.6 mph NE15.4 kmh NE 17.0 mph27.4 kmh 30.10 in1019.3 mb 0.00 in0.0 mm 0.00 in0.0 mm 0.00 in0.0 mm
10:15 AM 58.3°F14.6°C 40.2°F4.6°C 51% 8.4 mph NE13.5 kmh NE 20.0 mph32.2 kmh 30.10 in1019.3 mb 0.00 in0.0 mm 0.00 in0.0 mm 0.00 in0.0 mm
10:20 AM 58.6°F14.8°C 40.5°F4.7°C 51% 9.5 mph NE15.3 kmh NE 20.0 mph32.2 kmh 30.09 in1019.0 mb 0.00 in0.0 mm 0.00 in0.0 mm 0.00 in0.0 mm
10:25 AM 58.9°F14.9°C 40.3°F4.6°C 50% 10.6 mph NE17.1 kmh NE 19.0 mph30.6 kmh 30.09 in1019.0 mb 0.00 in0.0 mm 0.00 in0.0 mm 0.00 in0.0 mm
10:30 AM 59.0°F15.0°C 39.9°F4.4°C 49% 10.4 mph NE16.7 kmh NE 28.0 mph45.1 kmh 30.09 in1019.0 mb 0.00 in0.0 mm 0.00 in0.0 mm 0.00 in0.0 mm
10:35 AM 59.3°F15.2°C 40.1°F4.5°C 49% 11.0 mph NE17.7 kmh NE 28.0 mph45.1 kmh 30.09 in1019.0 mb 0.00 in0.0 mm 0.00 in0.0 mm 0.00 in0.0 mm
10:40 AM 59.3°F15.2°C 39.6°F4.2°C 48% 11.2 mph NE18.0 kmh NE 22.0 mph35.4 kmh 30.10 in1019.3 mb 0.00 in0.0 mm 0.00 in0.0 mm 0.00 in0.0 mm
10:45 AM 59.5°F15.3°C 39.8°F4.3°C 48% 9.9 mph NE15.9 kmh NE 22.0 mph35.4 kmh 30.10 in1019.3 mb 0.00 in0.0 mm 0.00 in0.0 mm 0.00 in0.0 mm
10:50 AM 60.0°F15.6°C 39.7°F4.3°C 47% 9.4 mph NE15.1 kmh NE 21.0 mph33.8 kmh 30.08 in1018.6 mb 0.00 in0.0 mm 0.00 in0.0 mm 0.00 in0.0 mm
10:55 AM 60.2°F15.7°C 39.9°F4.4°C 47% 10.2 mph NE16.4 kmh NE 23.0 mph37.0 kmh 30.08 in1018.6 mb 0.00 in0.0 mm 0.00 in0.0 mm 0.00 in0.0 mm
11:00 AM 60.4°F15.8°C 39.5°F4.2°C 46% 11.3 mph NE18.2 kmh NE 26.0 mph41.8 kmh 30.08 in1018.6 mb 0.00 in0.0 mm 0.00 in0.0 mm 0.00 in0.0 mm
11:05 AM 60.6°F15.9°C 39.7°F4.3°C 46% 12.4 mph NE20.0 kmh NE 26.0 mph41.8 kmh 30.09 in1019.0 mb 0.00 in0.0 mm 0.00 in0.0 mm 0.00 in0.0 mm
11:10 AM 60.7°F15.9°C 39.2°F4.0°C 45% 13.6 mph NE21.9 kmh NE 32.0 mph51.5 kmh 30.08 in1018.6 mb 0.00 in0.0 mm 0.00 in0.0 mm 0.00 in0.0 mm
11:15 AM 60.8°F16.0°C 39.3°F4.1°C 45% 14.5 mph NE23.3 kmh NE 32.0 mph51.5 kmh 30.09 in1019.0 mb 0.00 in0.0 mm 0.00 in0.0 mm 0.00 in0.0 mm
11:20 AM 60.7°F15.9°C 39.2°F4.0°C 45% 15.0 mph NE24.1 kmh NE 23.0 mph37.0 kmh 30.09 in1019.0 mb 0.00 in0.0 mm 0.00 in0.0 mm 0.00 in0.0 mm
11:25 AM 60.8°F16.0°C 39.3°F4.1°C 45% 14.5 mph NE23.3 kmh NE 23.0 mph37.0 kmh 30.09 in1019.0 mb 0.00 in0.0 mm 0.00 in0.0 mm 0.00 in0.0 mm
11:30 AM 60.9°F16.1°C 39.4°F4.1°C 45% 12.9 mph NE20.8 kmh NE 21.0 mph33.8 kmh 30.09 in1019.0 mb 0.00 in0.0 mm 0.00 in0.0 mm 0.00 in0.0 mm
11:35 AM 61.1°F16.2°C 39.6°F4.2°C 45% 11.1 mph NE17.9 kmh NE 21.0 mph33.8 kmh 30.09 in1019.0 mb 0.00 in0.0 mm 0.00 in0.0 mm 0.00 in0.0 mm
11:40 AM 61.3°F16.3°C 39.8°F4.3°C 45% 10.3 mph NE16.6 kmh NE 21.0 mph33.8 kmh 30.09 in1019.0 mb 0.00 in0.0 mm 0.00 in0.0 mm 0.00 in0.0 mm
11:45 AM 61.6°F16.4°C 40.0°F4.4°C 45% 10.1 mph NE16.3 kmh NE 27.0 mph43.5 kmh 30.09 in1019.0 mb 0.00 in0.0 mm 0.00 in0.0 mm 0.00 in0.0 mm
11:50 AM 61.5°F16.4°C 39.9°F4.4°C 45% 10.7 mph NE17.2 kmh NE 27.0 mph43.5 kmh 30.08 in1018.6 mb 0.00 in0.0 mm 0.00 in0.0 mm 0.00 in0.0 mm
11:55 AM 61.4°F16.3°C 39.9°F4.4°C 45% 12.1 mph NE19.5 kmh NE 25.0 mph40.2 kmh 30.08 in1018.6 mb 0.00 in0.0 mm 0.00 in0.0 mm 0.00 in0.0 mm
12:00 PM 61.4°F16.3°C 39.9°F4.4°C 45% 13.2 mph NE21.2 kmh NE 23.0 mph37.0 kmh 30.08 in1018.6 mb 0.00 in0.0 mm 0.00 in0.0 mm 0.00 in0.0 mm
12:05 PM 61.6°F16.4°C 40.0°F4.4°C 45% 13.0 mph NE20.9 kmh NE 21.0 mph33.8 kmh 30.09 in1019.0 mb 0.00 in0.0 mm 0.00 in0.0 mm 0.00 in0.0 mm
12:10 PM 61.4°F16.3°C 40.4°F4.7°C 46% 11.9 mph NE19.2 kmh NE 21.0 mph33.8 kmh 30.09 in1019.0 mb 0.00 in0.0 mm 0.00 in0.0 mm 0.00 in0.0 mm
12:15 PM 61.4°F16.3°C 40.4°F4.7°C 46% 11.5 mph NE18.5 kmh NE 24.0 mph38.6 kmh 30.08 in1018.6 mb 0.00 in0.0 mm 0.00 in0.0 mm 0.00 in0.0 mm
12:20 PM 61.3°F16.3°C 40.3°F4.6°C 46% 12.1 mph NE19.5 kmh NE 26.0 mph41.8 kmh 30.08 in1018.6 mb 0.00 in0.0 mm 0.00 in0.0 mm 0.00 in0.0 mm
12:25 PM 61.4°F16.3°C 40.4°F4.7°C 46% 13.0 mph NE20.9 kmh NE 26.0 mph41.8 kmh 30.07 in1018.3 mb 0.00 in0.0 mm 0.00 in0.0 mm 0.00 in0.0 mm
12:30 PM 61.6°F16.4°C 40.6°F4.8°C 46% 12.8 mph NE20.6 kmh NE 20.0 mph32.2 kmh 30.07 in1018.3 mb 0.00 in0.0 mm 0.00 in0.0 mm 0.00 in0.0 mm
12:35 PM 61.6°F16.4°C 40.0°F4.4°C 45% 11.7 mph NE18.8 kmh NE 25.0 mph40.2 kmh 30.06 in1017.9 mb 0.00 in0.0 mm 0.00 in0.0 mm 0.00 in0.0 mm
12:40 PM 61.6°F16.4°C 40.6°F4.8°C 46% 12.6 mph NE20.3 kmh NE 25.0 mph40.2 kmh 30.06 in1017.9 mb 0.00 in0.0 mm 0.00 in0.0 mm 0.00 in0.0 mm
12:45 PM 62.0°F16.7°C 41.0°F5.0°C 46% 14.2 mph NE22.9 kmh NE 24.0 mph38.6 kmh 30.06 in1017.9 mb 0.00 in0.0 mm 0.00 in0.0 mm 0.00 in0.0 mm
12:50 PM 62.2°F16.8°C 40.6°F4.8°C 45% 12.8 mph NE20.6 kmh NE 22.0 mph35.4 kmh 30.06 in1017.9 mb 0.00 in0.0 mm 0.00 in0.0 mm 0.00 in0.0 mm
12:55 PM 62.1°F16.7°C 40.5°F4.7°C 45% 11.0 mph NE17.7 kmh NE 25.0 mph40.2 kmh 30.06 in1017.9 mb 0.00 in0.0 mm 0.00 in0.0 mm 0.00 in0.0 mm
01:00 PM 62.4°F16.9°C 40.8°F4.9°C 45% 11.1 mph NE17.9 kmh NE 25.0 mph40.2 kmh 30.06 in1017.9 mb 0.00 in0.0 mm 0.00 in0.0 mm 0.00 in0.0 mm
01:05 PM 62.2°F16.8°C 40.6°F4.8°C 45% 10.7 mph NE17.2 kmh NE 24.0 mph38.6 kmh 30.06 in1017.9 mb 0.00 in0.0 mm 0.00 in0.0 mm 0.00 in0.0 mm
01:10 PM 62.4°F16.9°C 40.8°F4.9°C 45% 10.5 mph NE16.9 kmh NE 24.0 mph38.6 kmh 30.06 in1017.9 mb 0.00 in0.0 mm 0.00 in0.0 mm 0.00 in0.0 mm
01:15 PM 62.5°F16.9°C 40.9°F4.9°C 45% 11.3 mph NE18.2 kmh NE 22.0 mph35.4 kmh 30.05 in1017.6 mb 0.00 in0.0 mm 0.00 in0.0 mm 0.00 in0.0 mm
01:20 PM 62.6°F17.0°C 40.9°F4.9°C 45% 11.4 mph NE18.3 kmh NE 23.0 mph37.0 kmh 30.05 in1017.6 mb 0.00 in0.0 mm 0.00 in0.0 mm 0.00 in0.0 mm
01:25 PM 62.5°F16.9°C 40.3°F4.6°C 44% 11.8 mph NE19.0 kmh NE 25.0 mph40.2 kmh 30.05 in1017.6 mb 0.00 in0.0 mm 0.00 in0.0 mm 0.00 in0.0 mm
01:30 PM 62.5°F16.9°C 40.3°F4.6°C 44% 12.8 mph NE20.6 kmh NE 25.0 mph40.2 kmh 30.06 in1017.9 mb 0.00 in0.0 mm 0.00 in0.0 mm 0.00 in0.0 mm
01:35 PM 62.7°F17.1°C 40.5°F4.7°C 44% 12.5 mph NE20.1 kmh NE 21.0 mph33.8 kmh 30.06 in1017.9 mb 0.00 in0.0 mm 0.00 in0.0 mm 0.00 in0.0 mm
01:40 PM 62.7°F17.1°C 40.5°F4.7°C 44% 10.9 mph NE17.5 kmh NE 20.0 mph32.2 kmh 30.06 in1017.9 mb 0.00 in0.0 mm 0.00 in0.0 mm 0.00 in0.0 mm
01:45 PM 62.8°F17.1°C 40.5°F4.7°C 44% 9.5 mph NE15.3 kmh NE 20.0 mph32.2 kmh 30.06 in1017.9 mb 0.00 in0.0 mm 0.00 in0.0 mm 0.00 in0.0 mm
01:50 PM 62.7°F17.1°C 40.5°F4.7°C 44% 9.6 mph NE15.4 kmh NE 18.0 mph29.0 kmh 30.06 in1017.9 mb 0.00 in0.0 mm 0.00 in0.0 mm 0.00 in0.0 mm
01:55 PM 62.7°F17.1°C 40.5°F4.7°C 44% 10.2 mph NE16.4 kmh NE 21.0 mph33.8 kmh 30.06 in1017.9 mb 0.00 in0.0 mm 0.00 in0.0 mm 0.00 in0.0 mm
02:00 PM 62.7°F17.1°C 40.5°F4.7°C 44% 10.7 mph NE17.2 kmh NE 21.0 mph33.8 kmh 30.06 in1017.9 mb 0.00 in0.0 mm 0.00 in0.0 mm 0.00 in0.0 mm
02:05 PM 62.8°F17.1°C 40.5°F4.7°C 44% 11.0 mph NE17.7 kmh NE 19.0 mph30.6 kmh 30.05 in1017.6 mb 0.00 in0.0 mm 0.00 in0.0 mm 0.00 in0.0 mm
02:10 PM 63.0°F17.2°C 40.1°F4.5°C 43% 10.7 mph NE17.2 kmh NE 19.0 mph30.6 kmh 30.05 in1017.6 mb 0.00 in0.0 mm 0.00 in0.0 mm 0.00 in0.0 mm
02:15 PM 63.1°F17.3°C 40.2°F4.6°C 43% 9.9 mph NE15.9 kmh NE 19.0 mph30.6 kmh 30.06 in1017.9 mb 0.00 in0.0 mm 0.00 in0.0 mm 0.00 in0.0 mm
02:20 PM 63.2°F17.3°C 39.7°F4.3°C 42% 9.6 mph NE15.4 kmh NE 19.0 mph30.6 kmh 30.06 in1017.9 mb 0.00 in0.0 mm 0.00 in0.0 mm 0.00 in0.0 mm
02:25 PM 63.1°F17.3°C 39.6°F4.2°C 42% 10.8 mph NE17.4 kmh NE 18.0 mph29.0 kmh 30.05 in1017.6 mb 0.00 in0.0 mm 0.00 in0.0 mm 0.00 in0.0 mm
02:30 PM 63.2°F17.3°C 39.7°F4.3°C 42% 11.5 mph NE18.5 kmh NE 21.0 mph33.8 kmh 30.05 in1017.6 mb 0.00 in0.0 mm 0.00 in0.0 mm 0.00 in0.0 mm
02:35 PM 63.0°F17.2°C 39.5°F4.2°C 42% 11.1 mph NE17.9 kmh NE 21.0 mph33.8 kmh 30.05 in1017.6 mb 0.00 in0.0 mm 0.00 in0.0 mm 0.00 in0.0 mm
02:40 PM 63.0°F17.2°C 40.1°F4.5°C 43% 11.6 mph NE18.7 kmh NE 24.0 mph38.6 kmh 30.05 in1017.6 mb 0.00 in0.0 mm 0.00 in0.0 mm 0.00 in0.0 mm
02:45 PM 63.3°F17.4°C 40.4°F4.7°C 43% 11.8 mph NE19.0 kmh NE 24.0 mph38.6 kmh 30.05 in1017.6 mb 0.00 in0.0 mm 0.00 in0.0 mm 0.00 in0.0 mm
02:50 PM 63.3°F17.4°C 40.4°F4.7°C 43% 9.7 mph NE15.6 kmh NE 13.0 mph20.9 kmh 30.06 in1017.9 mb 0.00 in0.0 mm 0.00 in0.0 mm 0.00 in0.0 mm
02:55 PM 63.0°F17.2°C 40.1°F4.5°C 43% 7.9 mph NE12.7 kmh NE 22.0 mph35.4 kmh 30.05 in1017.6 mb 0.00 in0.0 mm 0.00 in0.0 mm 0.00 in0.0 mm
03:00 PM 63.0°F17.2°C 40.1°F4.5°C 43% 9.4 mph NE15.1 kmh NE 22.0 mph35.4 kmh 30.05 in1017.6 mb 0.00 in0.0 mm 0.00 in0.0 mm 0.00 in0.0 mm
03:05 PM 63.0°F17.2°C 40.7°F4.8°C 44% 11.4 mph NE18.3 kmh NE 22.0 mph35.4 kmh 30.05 in1017.6 mb 0.00 in0.0 mm 0.00 in0.0 mm 0.00 in0.0 mm
03:10 PM 62.9°F17.2°C 40.6°F4.8°C 44% 12.0 mph NE19.3 kmh NE 22.0 mph35.4 kmh 30.05 in1017.6 mb 0.00 in0.0 mm 0.00 in0.0 mm 0.00 in0.0 mm
03:15 PM 62.9°F17.2°C 40.6°F4.8°C 44% 12.1 mph NE19.5 kmh NE 22.0 mph35.4 kmh 30.05 in1017.6 mb 0.00 in0.0 mm 0.00 in0.0 mm 0.00 in0.0 mm
03:20 PM 62.8°F17.1°C 40.5°F4.7°C 44% 12.8 mph NE20.6 kmh NE 25.0 mph40.2 kmh 30.06 in1017.9 mb 0.00 in0.0 mm 0.00 in0.0 mm 0.00 in0.0 mm
03:25 PM 62.8°F17.1°C 41.1°F5.1°C 45% 13.1 mph NE21.1 kmh NE 25.0 mph40.2 kmh 30.06 in1017.9 mb 0.00 in0.0 mm 0.00 in0.0 mm 0.00 in0.0 mm
03:30 PM 62.8°F17.1°C 41.1°F5.1°C 45% 12.2 mph NE19.6 kmh NE 19.0 mph30.6 kmh 30.06 in1017.9 mb 0.00 in0.0 mm 0.00 in0.0 mm 0.00 in0.0 mm
03:35 PM 62.9°F17.2°C 41.2°F5.1°C 45% 10.5 mph NE16.9 kmh NE 16.0 mph25.7 kmh 30.06 in1017.9 mb 0.00 in0.0 mm 0.00 in0.0 mm 0.00 in0.0 mm
03:40 PM 63.0°F17.2°C 41.3°F5.2°C 45% 9.0 mph NE14.5 kmh NE 16.0 mph25.7 kmh 30.06 in1017.9 mb 0.00 in0.0 mm 0.00 in0.0 mm 0.00 in0.0 mm
03:45 PM 62.9°F17.2°C 41.2°F5.1°C 45% 8.1 mph NE13.0 kmh NE 22.0 mph35.4 kmh 30.05 in1017.6 mb 0.00 in0.0 mm 0.00 in0.0 mm 0.00 in0.0 mm
03:50 PM 62.8°F17.1°C 41.1°F5.1°C 45% 9.1 mph NE14.6 kmh NE 22.0 mph35.4 kmh 30.05 in1017.6 mb 0.00 in0.0 mm 0.00 in0.0 mm 0.00 in0.0 mm
03:55 PM 62.8°F17.1°C 41.7°F5.4°C 46% 10.7 mph NE17.2 kmh NE 20.0 mph32.2 kmh 30.05 in1017.6 mb 0.00 in0.0 mm 0.00 in0.0 mm 0.00 in0.0 mm
04:00 PM 62.7°F17.1°C 41.6°F5.3°C 46% 11.8 mph NE19.0 kmh NE 23.0 mph37.0 kmh 30.05 in1017.6 mb 0.00 in0.0 mm 0.00 in0.0 mm 0.00 in0.0 mm
04:05 PM 62.6°F17.0°C 41.5°F5.3°C 46% 12.6 mph NE20.3 kmh NE 26.0 mph41.8 kmh 30.05 in1017.6 mb 0.00 in0.0 mm 0.00 in0.0 mm 0.00 in0.0 mm
04:10 PM 62.5°F16.9°C 41.4°F5.2°C 46% 13.9 mph NE22.4 kmh NE 26.0 mph41.8 kmh 30.04 in1017.3 mb 0.00 in0.0 mm 0.00 in0.0 mm 0.00 in0.0 mm
04:15 PM 62.5°F16.9°C 41.4°F5.2°C 46% 14.9 mph NE24.0 kmh NE 25.0 mph40.2 kmh 30.04 in1017.3 mb 0.00 in0.0 mm 0.00 in0.0 mm 0.00 in0.0 mm
04:20 PM 62.4°F16.9°C 41.9°F5.5°C 47% 14.9 mph NE24.0 kmh NE 22.0 mph35.4 kmh 30.05 in1017.6 mb 0.00 in0.0 mm 0.00 in0.0 mm 0.00 in0.0 mm
04:25 PM 62.4°F16.9°C 41.9°F5.5°C 47% 14.6 mph NE23.5 kmh NE 27.0 mph43.5 kmh 30.05 in1017.6 mb 0.00 in0.0 mm 0.00 in0.0 mm 0.00 in0.0 mm
04:30 PM 62.4°F16.9°C 41.9°F5.5°C 47% 14.1 mph NE22.7 kmh NE 27.0 mph43.5 kmh 30.05 in1017.6 mb 0.00 in0.0 mm 0.00 in0.0 mm 0.00 in0.0 mm
04:35 PM 62.3°F16.8°C 41.8°F5.4°C 47% 13.4 mph NE21.6 kmh NE 19.0 mph30.6 kmh 30.05 in1017.6 mb 0.00 in0.0 mm 0.00 in0.0 mm 0.00 in0.0 mm
04:40 PM 62.3°F16.8°C 41.8°F5.4°C 47% 12.4 mph NE20.0 kmh NE 20.0 mph32.2 kmh 30.05 in1017.6 mb 0.00 in0.0 mm 0.00 in0.0 mm 0.00 in0.0 mm
04:45 PM 62.2°F16.8°C 42.3°F5.7°C 48% 11.8 mph NE19.0 kmh NE 20.0 mph32.2 kmh 30.05 in1017.6 mb 0.00 in0.0 mm 0.00 in0.0 mm 0.00 in0.0 mm
04:50 PM 62.1°F16.7°C 42.2°F5.7°C 48% 11.8 mph NE19.0 kmh NE 17.0 mph27.4 kmh 30.05 in1017.6 mb 0.00 in0.0 mm 0.00 in0.0 mm 0.00 in0.0 mm
04:55 PM 62.0°F16.7°C 42.1°F5.6°C 48% 12.0 mph NE19.3 kmh NE 20.0 mph32.2 kmh 30.05 in1017.6 mb 0.00 in0.0 mm 0.00 in0.0 mm 0.00 in0.0 mm
05:00 PM 61.9°F16.6°C 42.5°F5.8°C 49% 11.5 mph NE18.5 kmh NE 20.0 mph32.2 kmh 30.05 in1017.6 mb 0.00 in0.0 mm 0.00 in0.0 mm 0.00 in0.0 mm
05:05 PM 61.9°F16.6°C 42.5°F5.8°C 49% 11.5 mph NE18.5 kmh NE 20.0 mph32.2 kmh 30.06 in1017.9 mb 0.00 in0.0 mm 0.00 in0.0 mm 0.00 in0.0 mm
05:10 PM 61.7°F16.5°C 42.3°F5.7°C 49% 12.0 mph NE19.3 kmh NE 20.0 mph32.2 kmh 30.06 in1017.9 mb 0.00 in0.0 mm 0.00 in0.0 mm 0.00 in0.0 mm
05:15 PM 61.6°F16.4°C 42.2°F5.7°C 49% 11.4 mph NE18.3 kmh NE 18.0 mph29.0 kmh 30.06 in1017.9 mb 0.00 in0.0 mm 0.00 in0.0 mm 0.00 in0.0 mm
05:20 PM 61.5°F16.4°C 42.7°F5.9°C 50% 10.2 mph NE16.4 kmh NE 17.0 mph27.4 kmh 30.07 in1018.3 mb 0.00 in0.0 mm 0.00 in0.0 mm 0.00 in0.0 mm
05:25 PM 61.4°F16.3°C 42.6°F5.9°C 50% 9.4 mph NE15.1 kmh NE 16.0 mph25.7 kmh 30.07 in1018.3 mb 0.00 in0.0 mm 0.00 in0.0 mm 0.00 in0.0 mm
05:30 PM 61.3°F16.3°C 42.5°F5.8°C 50% 9.3 mph NE15.0 kmh NE 18.0 mph29.0 kmh 30.07 in1018.3 mb 0.00 in0.0 mm 0.00 in0.0 mm 0.00 in0.0 mm
05:35 PM 61.3°F16.3°C 42.5°F5.8°C 50% 9.6 mph NE15.4 kmh NE 18.0 mph29.0 kmh 30.07 in1018.3 mb 0.00 in0.0 mm 0.00 in0.0 mm 0.00 in0.0 mm
05:40 PM 61.3°F16.3°C 42.5°F5.8°C 50% 9.5 mph NE15.3 kmh NE 17.0 mph27.4 kmh 30.07 in1018.3 mb 0.00 in0.0 mm 0.00 in0.0 mm 0.00 in0.0 mm
05:45 PM 61.2°F16.2°C 42.4°F5.8°C 50% 9.2 mph NE14.8 kmh NE 22.0 mph35.4 kmh 30.07 in1018.3 mb 0.00 in0.0 mm 0.00 in0.0 mm 0.00 in0.0 mm
05:50 PM 61.2°F16.2°C 42.4°F5.8°C 50% 8.4 mph NE13.5 kmh NE 22.0 mph35.4 kmh 30.07 in1018.3 mb 0.00 in0.0 mm 0.00 in0.0 mm 0.00 in0.0 mm
05:55 PM 61.1°F16.2°C 42.3°F5.7°C 50% 7.1 mph NE11.4 kmh NE 15.0 mph24.1 kmh 30.07 in1018.3 mb 0.00 in0.0 mm 0.00 in0.0 mm 0.00 in0.0 mm
06:00 PM 61.1°F16.2°C 42.8°F6.0°C 51% 6.5 mph NE10.5 kmh NE 14.0 mph22.5 kmh 30.07 in1018.3 mb 0.00 in0.0 mm 0.00 in0.0 mm 0.00 in0.0 mm
06:05 PM 61.0°F16.1°C 42.7°F5.9°C 51% 6.7 mph NE10.8 kmh NE 18.0 mph29.0 kmh 30.08 in1018.6 mb 0.00 in0.0 mm 0.00 in0.0 mm 0.00 in0.0 mm
06:10 PM 61.1°F16.2°C 42.8°F6.0°C 51% 7.5 mph NE12.1 kmh NE 18.0 mph29.0 kmh 30.07 in1018.3 mb 0.00 in0.0 mm 0.00 in0.0 mm 0.00 in0.0 mm
06:15 PM 60.9°F16.1°C 43.1°F6.2°C 52% 8.1 mph NE13.0 kmh NE 14.0 mph22.5 kmh 30.08 in1018.6 mb 0.00 in0.0 mm 0.00 in0.0 mm 0.00 in0.0 mm
06:20 PM 60.9°F16.1°C 43.1°F6.2°C 52% 8.1 mph NE13.0 kmh NE 19.0 mph30.6 kmh 30.07 in1018.3 mb 0.00 in0.0 mm 0.00 in0.0 mm 0.00 in0.0 mm
06:25 PM 60.9°F16.1°C 43.1°F6.2°C 52% 8.4 mph NE13.5 kmh NE 19.0 mph30.6 kmh 30.08 in1018.6 mb 0.00 in0.0 mm 0.00 in0.0 mm 0.00 in0.0 mm
06:30 PM 60.9°F16.1°C 43.1°F6.2°C 52% 8.6 mph NE13.8 kmh NE 16.0 mph25.7 kmh 30.08 in1018.6 mb 0.00 in0.0 mm 0.00 in0.0 mm 0.00 in0.0 mm
06:35 PM 60.9°F16.1°C 43.1°F6.2°C 52% 8.2 mph NE13.2 kmh NE 17.0 mph27.4 kmh 30.08 in1018.6 mb 0.00 in0.0 mm 0.00 in0.0 mm 0.00 in0.0 mm
06:40 PM 60.9°F16.1°C 43.6°F6.4°C 53% 8.0 mph NE12.9 kmh NE 17.0 mph27.4 kmh 30.09 in1019.0 mb 0.00 in0.0 mm 0.00 in0.0 mm 0.00 in0.0 mm
06:45 PM 60.8°F16.0°C 43.6°F6.4°C 53% 7.7 mph NE12.4 kmh NE 17.0 mph27.4 kmh 30.09 in1019.0 mb 0.00 in0.0 mm 0.00 in0.0 mm 0.00 in0.0 mm
06:50 PM 60.7°F15.9°C 43.5°F6.4°C 53% 6.9 mph NE11.1 kmh NE 17.0 mph27.4 kmh 30.09 in1019.0 mb 0.00 in0.0 mm 0.00 in0.0 mm 0.00 in0.0 mm
06:55 PM 60.7°F15.9°C 43.5°F6.4°C 53% 6.6 mph NE10.6 kmh NE 14.0 mph22.5 kmh 30.09 in1019.0 mb 0.00 in0.0 mm 0.00 in0.0 mm 0.00 in0.0 mm
07:00 PM 60.8°F16.0°C 43.6°F6.4°C 53% 6.4 mph NE10.3 kmh NE 25.0 mph40.2 kmh 30.09 in1019.0 mb 0.00 in0.0 mm 0.00 in0.0 mm 0.00 in0.0 mm
07:05 PM 60.8°F16.0°C 44.0°F6.7°C 54% 6.4 mph NE10.3 kmh NE 25.0 mph40.2 kmh 30.10 in1019.3 mb 0.00 in0.0 mm 0.00 in0.0 mm 0.00 in0.0 mm
07:10 PM 60.8°F16.0°C 44.0°F6.7°C 54% 6.9 mph NE11.1 kmh NE 14.0 mph22.5 kmh 30.10 in1019.3 mb 0.00 in0.0 mm 0.00 in0.0 mm 0.00 in0.0 mm
07:15 PM 60.7°F15.9°C 43.9°F6.6°C 54% 6.2 mph NE10.0 kmh NE 12.0 mph19.3 kmh 30.10 in1019.3 mb 0.00 in0.0 mm 0.00 in0.0 mm 0.00 in0.0 mm
07:20 PM 60.7°F15.9°C 43.9°F6.6°C 54% 5.1 mph NE8.2 kmh NE 10.0 mph16.1 kmh 30.10 in1019.3 mb 0.00 in0.0 mm 0.00 in0.0 mm 0.00 in0.0 mm
07:25 PM 60.6°F15.9°C 43.9°F6.6°C 54% 4.1 mph NE6.6 kmh NE 10.0 mph16.1 kmh 30.09 in1019.0 mb 0.00 in0.0 mm 0.00 in0.0 mm 0.00 in0.0 mm
07:30 PM 60.7°F15.9°C 43.9°F6.6°C 54% 3.8 mph NE6.1 kmh NE 15.0 mph24.1 kmh 30.10 in1019.3 mb 0.00 in0.0 mm 0.00 in0.0 mm 0.00 in0.0 mm
07:35 PM 60.6°F15.9°C 43.9°F6.6°C 54% 5.0 mph NE8.0 kmh NE 15.0 mph24.1 kmh 30.10 in1019.3 mb 0.00 in0.0 mm 0.00 in0.0 mm 0.00 in0.0 mm
07:40 PM 60.5°F15.8°C 44.2°F6.8°C 55% 5.5 mph NE8.9 kmh NE 17.0 mph27.4 kmh 30.10 in1019.3 mb 0.00 in0.0 mm 0.00 in0.0 mm 0.00 in0.0 mm
07:45 PM 60.5°F15.8°C 44.2°F6.8°C 55% 5.6 mph NE9.0 kmh NE 17.0 mph27.4 kmh 30.10 in1019.3 mb 0.00 in0.0 mm 0.00 in0.0 mm 0.00 in0.0 mm
07:50 PM 60.5°F15.8°C 44.2°F6.8°C 55% 6.3 mph NE10.1 kmh NE 15.0 mph24.1 kmh 30.10 in1019.3 mb 0.00 in0.0 mm 0.00 in0.0 mm 0.00 in0.0 mm
07:55 PM 60.3°F15.7°C 44.1°F6.7°C 55% 5.5 mph NE8.9 kmh NE 12.0 mph19.3 kmh 30.11 in1019.6 mb 0.00 in0.0 mm 0.00 in0.0 mm 0.00 in0.0 mm
08:00 PM 60.3°F15.7°C 43.6°F6.4°C 54% 4.2 mph NE6.8 kmh NE 17.0 mph27.4 kmh 30.10 in1019.3 mb 0.00 in0.0 mm 0.00 in0.0 mm 0.00 in0.0 mm
08:05 PM 60.4°F15.8°C 43.7°F6.5°C 54% 4.6 mph NE7.4 kmh NE 17.0 mph27.4 kmh 30.10 in1019.3 mb 0.00 in0.0 mm 0.00 in0.0 mm 0.00 in0.0 mm
08:10 PM 60.3°F15.7°C 43.6°F6.4°C 54% 5.1 mph NE8.2 kmh NE 12.0 mph19.3 kmh 30.11 in1019.6 mb 0.00 in0.0 mm 0.00 in0.0 mm 0.00 in0.0 mm
08:15 PM 60.3°F15.7°C 43.6°F6.4°C 54% 4.8 mph NE7.7 kmh NE 18.0 mph29.0 kmh 30.11 in1019.6 mb 0.00 in0.0 mm 0.00 in0.0 mm 0.00 in0.0 mm
08:20 PM 60.3°F15.7°C 43.1°F6.2°C 53% 5.4 mph NE8.7 kmh NE 18.0 mph29.0 kmh 30.11 in1019.6 mb 0.00 in0.0 mm 0.00 in0.0 mm 0.00 in0.0 mm
08:25 PM 60.3°F15.7°C 43.1°F6.2°C 53% 7.0 mph NE11.3 kmh NE 14.0 mph22.5 kmh 30.11 in1019.6 mb 0.00 in0.0 mm 0.00 in0.0 mm 0.00 in0.0 mm
08:30 PM 60.2°F15.7°C 43.0°F6.1°C 53% 6.9 mph NE11.1 kmh NE 11.0 mph17.7 kmh 30.12 in1020.0 mb 0.00 in0.0 mm 0.00 in0.0 mm 0.00 in0.0 mm
08:35 PM 60.2°F15.7°C 43.0°F6.1°C 53% 5.4 mph NE8.7 kmh NE 9.0 mph14.5 kmh 30.12 in1020.0 mb 0.00 in0.0 mm 0.00 in0.0 mm 0.00 in0.0 mm
08:40 PM 60.0°F15.6°C 42.8°F6.0°C 53% 4.0 mph NE6.4 kmh NE 8.0 mph12.9 kmh 30.13 in1020.3 mb 0.00 in0.0 mm 0.00 in0.0 mm 0.00 in0.0 mm
08:45 PM 59.8°F15.4°C 42.6°F5.9°C 53% 2.3 mph NE3.7 kmh NE 7.0 mph11.3 kmh 30.13 in1020.3 mb 0.00 in0.0 mm 0.00 in0.0 mm 0.00 in0.0 mm
08:50 PM 59.9°F15.5°C 42.7°F5.9°C 53% 1.3 mph NE2.1 kmh NE 9.0 mph14.5 kmh 30.13 in1020.3 mb 0.00 in0.0 mm 0.00 in0.0 mm 0.00 in0.0 mm
08:55 PM 60.2°F15.7°C 42.5°F5.8°C 52% 2.5 mph NE4.0 kmh NE 12.0 mph19.3 kmh 30.14 in1020.7 mb 0.00 in0.0 mm 0.00 in0.0 mm 0.00 in0.0 mm
09:00 PM 60.1°F15.6°C 42.4°F5.8°C 52% 4.6 mph NE7.4 kmh NE 12.0 mph19.3 kmh 30.14 in1020.7 mb 0.00 in0.0 mm 0.00 in0.0 mm 0.00 in0.0 mm
09:05 PM 60.3°F15.7°C 42.6°F5.9°C 52% 5.7 mph NE9.2 kmh NE 13.0 mph20.9 kmh 30.14 in1020.7 mb 0.00 in0.0 mm 0.00 in0.0 mm 0.00 in0.0 mm
09:10 PM 60.3°F15.7°C 42.6°F5.9°C 52% 5.9 mph NE9.5 kmh NE 13.0 mph20.9 kmh 30.14 in1020.7 mb 0.00 in0.0 mm 0.00 in0.0 mm 0.00 in0.0 mm
09:15 PM 60.4°F15.8°C 42.2°F5.7°C 51% 6.1 mph NE9.8 kmh NE 15.0 mph24.1 kmh 30.14 in1020.7 mb 0.00 in0.0 mm 0.00 in0.0 mm 0.00 in0.0 mm
09:20 PM 60.4°F15.8°C 42.2°F5.7°C 51% 6.3 mph NE10.1 kmh NE 15.0 mph24.1 kmh 30.15 in1021.0 mb 0.00 in0.0 mm 0.00 in0.0 mm 0.00 in0.0 mm
09:25 PM 60.3°F15.7°C 42.6°F5.9°C 52% 6.2 mph NE10.0 kmh NE 13.0 mph20.9 kmh 30.15 in1021.0 mb 0.00 in0.0 mm 0.00 in0.0 mm 0.00 in0.0 mm
09:30 PM 60.4°F15.8°C 42.7°F5.9°C 52% 6.4 mph NE10.3 kmh NE 18.0 mph29.0 kmh 30.15 in1021.0 mb 0.00 in0.0 mm 0.00 in0.0 mm 0.00 in0.0 mm
09:35 PM 60.5°F15.8°C 42.8°F6.0°C 52% 6.8 mph NE10.9 kmh NE 18.0 mph29.0 kmh 30.15 in1021.0 mb 0.00 in0.0 mm 0.00 in0.0 mm 0.00 in0.0 mm
09:40 PM 60.5°F15.8°C 42.8°F6.0°C 52% 7.7 mph NE12.4 kmh NE 18.0 mph29.0 kmh 30.14 in1020.7 mb 0.00 in0.0 mm 0.00 in0.0 mm 0.00 in0.0 mm
09:45 PM 60.5°F15.8°C 42.8°F6.0°C 52% 8.6 mph NE13.8 kmh NE 17.0 mph27.4 kmh 30.14 in1020.7 mb 0.00 in0.0 mm 0.00 in0.0 mm 0.00 in0.0 mm
09:50 PM 60.4°F15.8°C 42.7°F5.9°C 52% 7.6 mph NE12.2 kmh NE 16.0 mph25.7 kmh 30.15 in1021.0 mb 0.00 in0.0 mm 0.00 in0.0 mm 0.00 in0.0 mm
09:55 PM 60.3°F15.7°C 42.6°F5.9°C 52% 6.0 mph NE9.7 kmh NE 14.0 mph22.5 kmh 30.14 in1020.7 mb 0.00 in0.0 mm 0.00 in0.0 mm 0.00 in0.0 mm
10:00 PM 60.3°F15.7°C 42.6°F5.9°C 52% 5.8 mph NE9.3 kmh NE 17.0 mph27.4 kmh 30.14 in1020.7 mb 0.00 in0.0 mm 0.00 in0.0 mm 0.00 in0.0 mm
10:05 PM 60.3°F15.7°C 42.6°F5.9°C 52% 6.6 mph NE10.6 kmh NE 17.0 mph27.4 kmh 30.14 in1020.7 mb 0.00 in0.0 mm 0.00 in0.0 mm 0.00 in0.0 mm
10:10 PM 60.2°F15.7°C 42.5°F5.8°C 52% 6.6 mph NE10.6 kmh NE 15.0 mph24.1 kmh 30.14 in1020.7 mb 0.00 in0.0 mm 0.00 in0.0 mm 0.00 in0.0 mm
10:15 PM 60.4°F15.8°C 42.7°F5.9°C 52% 7.0 mph NE11.3 kmh NE 23.0 mph37.0 kmh 30.13 in1020.3 mb 0.00 in0.0 mm 0.00 in0.0 mm 0.00 in0.0 mm
10:20 PM 60.5°F15.8°C 42.8°F6.0°C 52% 9.6 mph NE15.4 kmh NE 24.0 mph38.6 kmh 30.13 in1020.3 mb 0.00 in0.0 mm 0.00 in0.0 mm 0.00 in0.0 mm
10:25 PM 60.3°F15.7°C 42.6°F5.9°C 52% 11.5 mph NE18.5 kmh NE 24.0 mph38.6 kmh 30.13 in1020.3 mb 0.00 in0.0 mm 0.00 in0.0 mm 0.00 in0.0 mm
10:30 PM 60.2°F15.7°C 43.0°F6.1°C 53% 10.2 mph NE16.4 kmh NE 18.0 mph29.0 kmh 30.13 in1020.3 mb 0.00 in0.0 mm 0.00 in0.0 mm 0.00 in0.0 mm
10:35 PM 60.2°F15.7°C 43.0°F6.1°C 53% 9.6 mph NE15.4 kmh NE 21.0 mph33.8 kmh 30.13 in1020.3 mb 0.00 in0.0 mm 0.00 in0.0 mm 0.00 in0.0 mm
10:40 PM 60.2°F15.7°C 43.0°F6.1°C 53% 10.5 mph NE16.9 kmh NE 21.0 mph33.8 kmh 30.13 in1020.3 mb 0.00 in0.0 mm 0.00 in0.0 mm 0.00 in0.0 mm
10:45 PM 60.1°F15.6°C 42.9°F6.1°C 53% 10.2 mph NE16.4 kmh NE 20.0 mph32.2 kmh 30.14 in1020.7 mb 0.00 in0.0 mm 0.00 in0.0 mm 0.00 in0.0 mm
10:50 PM 60.1°F15.6°C 43.4°F6.3°C 54% 8.8 mph NE14.2 kmh NE 20.0 mph32.2 kmh 30.14 in1020.7 mb 0.00 in0.0 mm 0.00 in0.0 mm 0.00 in0.0 mm
10:55 PM 59.9°F15.5°C 43.2°F6.2°C 54% 7.7 mph NE12.4 kmh NE 17.0 mph27.4 kmh 30.13 in1020.3 mb 0.00 in0.0 mm 0.00 in0.0 mm 0.00 in0.0 mm
11:00 PM 59.9°F15.5°C 43.7°F6.5°C 55% 6.6 mph NE10.6 kmh NE 17.0 mph27.4 kmh 30.13 in1020.3 mb 0.00 in0.0 mm 0.00 in0.0 mm 0.00 in0.0 mm
11:05 PM 59.9°F15.5°C 43.7°F6.5°C 55% 6.0 mph NE9.7 kmh NE 14.0 mph22.5 kmh 30.13 in1020.3 mb 0.00 in0.0 mm 0.00 in0.0 mm 0.00 in0.0 mm
11:10 PM 60.0°F15.6°C 43.8°F6.6°C 55% 6.9 mph NE11.1 kmh NE 23.0 mph37.0 kmh 30.13 in1020.3 mb 0.00 in0.0 mm 0.00 in0.0 mm 0.00 in0.0 mm
11:15 PM 59.9°F15.5°C 44.2°F6.8°C 56% 8.3 mph NE13.4 kmh NE 23.0 mph37.0 kmh 30.13 in1020.3 mb 0.00 in0.0 mm 0.00 in0.0 mm 0.00 in0.0 mm
11:20 PM 60.0°F15.6°C 44.3°F6.8°C 56% 8.5 mph NE13.7 kmh NE 19.0 mph30.6 kmh 30.13 in1020.3 mb 0.00 in0.0 mm 0.00 in0.0 mm 0.00 in0.0 mm
11:25 PM 60.0°F15.6°C 44.3°F6.8°C 56% 8.0 mph NE12.9 kmh NE 19.0 mph30.6 kmh 30.13 in1020.3 mb 0.00 in0.0 mm 0.00 in0.0 mm 0.00 in0.0 mm
11:30 PM 60.1°F15.6°C 44.3°F6.8°C 56% 8.7 mph NE14.0 kmh NE 22.0 mph35.4 kmh 30.14 in1020.7 mb 0.00 in0.0 mm 0.00 in0.0 mm 0.00 in0.0 mm
11:35 PM 60.1°F15.6°C 44.3°F6.8°C 56% 9.5 mph NE15.3 kmh NE 22.0 mph35.4 kmh 30.14 in1020.7 mb 0.00 in0.0 mm 0.00 in0.0 mm 0.00 in0.0 mm
11:40 PM 60.0°F15.6°C 44.3°F6.8°C 56% 9.5 mph NE15.3 kmh NE 15.0 mph24.1 kmh 30.14 in1020.7 mb 0.00 in0.0 mm 0.00 in0.0 mm 0.00 in0.0 mm
11:45 PM 60.0°F15.6°C 44.3°F6.8°C 56% 8.9 mph NE14.3 kmh NE 17.0 mph27.4 kmh 30.14 in1020.7 mb 0.00 in0.0 mm 0.00 in0.0 mm 0.00 in0.0 mm
11:50 PM 60.0°F15.6°C 44.3°F6.8°C 56% 9.1 mph NE14.6 kmh NE 18.0 mph29.0 kmh 30.15 in1021.0 mb 0.00 in0.0 mm 0.00 in0.0 mm 0.00 in0.0 mm
11:55 PM 60.0°F15.6°C 44.3°F6.8°C 56% 10.3 mph NE16.6 kmh NE 18.0 mph29.0 kmh 30.15 in1021.0 mb 0.00 in0.0 mm 0.00 in0.0 mm 0.00 in0.0 mm